sensor_id;sensor_type;location;lat;lon;timestamp;temperature;humidity
62581;DHT22;48640;48.770;9.148;2022-12-07T00:01:21;4.90;99.90
62581;DHT22;48640;48.770;9.148;2022-12-07T00:03:51;5.60;99.90
62581;DHT22;48640;48.770;9.148;2022-12-07T00:06:18;5.00;99.90
62581;DHT22;48640;48.770;9.148;2022-12-07T00:08:46;5.20;99.90
62581;DHT22;48640;48.770;9.148;2022-12-07T00:11:15;5.60;99.90
62581;DHT22;48640;48.770;9.148;2022-12-07T00:13:42;4.90;99.90
62581;DHT22;48640;48.770;9.148;2022-12-07T00:16:11;5.50;99.90
62581;DHT22;48640;48.770;9.148;2022-12-07T00:18:39;5.60;99.90
62581;DHT22;48640;48.770;9.148;2022-12-07T00:21:09;5.00;99.90
62581;DHT22;48640;48.770;9.148;2022-12-07T00:23:37;5.20;99.90
62581;DHT22;48640;48.770;9.148;2022-12-07T00:26:05;5.50;99.90
62581;DHT22;48640;48.770;9.148;2022-12-07T00:28:32;5.60;99.90
62581;DHT22;48640;48.770;9.148;2022-12-07T00:31:01;5.10;99.90
62581;DHT22;48640;48.770;9.148;2022-12-07T00:33:28;5.10;99.90
62581;DHT22;48640;48.770;9.148;2022-12-07T00:35:56;4.80;99.90
62581;DHT22;48640;48.770;9.148;2022-12-07T00:38:24;4.90;99.90
62581;DHT22;48640;48.770;9.148;2022-12-07T00:40:56;4.80;99.90
62581;DHT22;48640;48.770;9.148;2022-12-07T00:43:23;5.20;99.90
62581;DHT22;48640;48.770;9.148;2022-12-07T00:45:50;4.80;99.90
62581;DHT22;48640;48.770;9.148;2022-12-07T00:48:17;4.90;99.90
62581;DHT22;48640;48.770;9.148;2022-12-07T00:50:44;4.90;99.90
62581;DHT22;48640;48.770;9.148;2022-12-07T00:53:10;5.00;99.90
62581;DHT22;48640;48.770;9.148;2022-12-07T00:55:38;5.30;99.90
62581;DHT22;48640;48.770;9.148;2022-12-07T00:58:05;5.00;99.90
62581;DHT22;48640;48.770;9.148;2022-12-07T01:00:32;5.40;99.90
62581;DHT22;48640;48.770;9.148;2022-12-07T01:03:00;4.90;99.90
62581;DHT22;48640;48.770;9.148;2022-12-07T01:05:26;5.60;99.90
62581;DHT22;48640;48.770;9.148;2022-12-07T01:07:53;5.20;99.90
62581;DHT22;48640;48.770;9.148;2022-12-07T01:10:20;5.10;99.90
62581;DHT22;48640;48.770;9.148;2022-12-07T01:12:48;5.10;99.90
62581;DHT22;48640;48.770;9.148;2022-12-07T01:15:15;5.20;99.90
62581;DHT22;48640;48.770;9.148;2022-12-07T01:17:42;5.40;99.90
62581;DHT22;48640;48.770;9.148;2022-12-07T01:20:10;5.20;99.90
62581;DHT22;48640;48.770;9.148;2022-12-07T01:22:37;5.10;99.90
62581;DHT22;48640;48.770;9.148;2022-12-07T01:25:04;5.20;99.90
62581;DHT22;48640;48.770;9.148;2022-12-07T01:27:32;5.20;99.90
62581;DHT22;48640;48.770;9.148;2022-12-07T01:30:01;5.10;99.90
62581;DHT22;48640;48.770;9.148;2022-12-07T01:32:29;4.90;99.90
62581;DHT22;48640;48.770;9.148;2022-12-07T01:34:55;5.00;99.90
62581;DHT22;48640;48.770;9.148;2022-12-07T01:37:22;4.40;99.90
62581;DHT22;48640;48.770;9.148;2022-12-07T01:39:50;5.10;99.90
62581;DHT22;48640;48.770;9.148;2022-12-07T01:42:17;5.50;99.90
62581;DHT22;48640;48.770;9.148;2022-12-07T01:47:57;5.20;99.90
62581;DHT22;48640;48.770;9.148;2022-12-07T01:50:26;5.50;99.90
62581;DHT22;48640;48.770;9.148;2022-12-07T01:53:00;4.80;99.90
62581;DHT22;48640;48.770;9.148;2022-12-07T01:55:28;5.50;99.90
62581;DHT22;48640;48.770;9.148;2022-12-07T01:57:55;5.00;99.90
62581;DHT22;48640;48.770;9.148;2022-12-07T02:00:23;4.80;99.90
62581;DHT22;48640;48.770;9.148;2022-12-07T02:02:55;5.00;99.90
62581;DHT22;48640;48.770;9.148;2022-12-07T02:05:23;4.90;99.90
62581;DHT22;48640;48.770;9.148;2022-12-07T02:07:51;5.30;99.90
62581;DHT22;48640;48.770;9.148;2022-12-07T02:10:20;5.40;99.90
62581;DHT22;48640;48.770;9.148;2022-12-07T02:12:52;5.10;99.90
62581;DHT22;48640;48.770;9.148;2022-12-07T02:15:22;5.50;99.90
62581;DHT22;48640;48.770;9.148;2022-12-07T02:17:57;5.40;99.90
62581;DHT22;48640;48.770;9.148;2022-12-07T02:20:29;5.10;99.90
62581;DHT22;48640;48.770;9.148;2022-12-07T02:23:34;5.70;99.90
62581;DHT22;48640;48.770;9.148;2022-12-07T02:26:23;4.90;99.90
62581;DHT22;48640;48.770;9.148;2022-12-07T02:31:50;5.00;99.90
62581;DHT22;48640;48.770;9.148;2022-12-07T02:34:26;5.00;99.90
62581;DHT22;48640;48.770;9.148;2022-12-07T02:37:00;5.40;99.90
62581;DHT22;48640;48.770;9.148;2022-12-07T02:39:34;5.40;99.90
62581;DHT22;48640;48.770;9.148;2022-12-07T02:42:07;4.70;99.90
62581;DHT22;48640;48.770;9.148;2022-12-07T02:44:37;5.60;99.90
62581;DHT22;48640;48.770;9.148;2022-12-07T02:47:07;5.20;99.90
62581;DHT22;48640;48.770;9.148;2022-12-07T02:49:36;5.40;99.90
62581;DHT22;48640;48.770;9.148;2022-12-07T02:52:04;4.80;99.90
62581;DHT22;48640;48.770;9.148;2022-12-07T02:54:31;4.80;99.90
62581;DHT22;48640;48.770;9.148;2022-12-07T02:57:04;4.80;99.80
62581;DHT22;48640;48.770;9.148;2022-12-07T02:59:42;5.40;99.90
62581;DHT22;48640;48.770;9.148;2022-12-07T03:02:18;4.80;99.90
62581;DHT22;48640;48.770;9.148;2022-12-07T03:04:55;4.70;99.90
62581;DHT22;48640;48.770;9.148;2022-12-07T03:07:31;4.80;99.90
62581;DHT22;48640;48.770;9.148;2022-12-07T03:10:02;4.70;99.90
62581;DHT22;48640;48.770;9.148;2022-12-07T03:12:40;4.90;99.90
62581;DHT22;48640;48.770;9.148;2022-12-07T03:15:14;4.90;99.90
62581;DHT22;48640;48.770;9.148;2022-12-07T03:17:43;5.10;99.90
62581;DHT22;48640;48.770;9.148;2022-12-07T03:20:12;4.90;99.90
62581;DHT22;48640;48.770;9.148;2022-12-07T03:22:42;4.50;99.90
62581;DHT22;48640;48.770;9.148;2022-12-07T03:25:12;4.50;99.90
62581;DHT22;48640;48.770;9.148;2022-12-07T03:27:44;5.30;99.90
62581;DHT22;48640;48.770;9.148;2022-12-07T03:30:17;4.80;99.90
62581;DHT22;48640;48.770;9.148;2022-12-07T03:32:46;5.40;99.90
62581;DHT22;48640;48.770;9.148;2022-12-07T03:35:20;4.70;99.90
62581;DHT22;48640;48.770;9.148;2022-12-07T03:37:52;4.90;99.90
62581;DHT22;48640;48.770;9.148;2022-12-07T03:40:24;5.10;99.90
62581;DHT22;48640;48.770;9.148;2022-12-07T03:42:52;4.80;99.90
62581;DHT22;48640;48.770;9.148;2022-12-07T03:45:26;5.10;99.90
62581;DHT22;48640;48.770;9.148;2022-12-07T03:48:03;5.00;99.60
62581;DHT22;48640;48.770;9.148;2022-12-07T03:50:36;5.30;99.50
62581;DHT22;48640;48.770;9.148;2022-12-07T03:53:08;4.90;98.90
62581;DHT22;48640;48.770;9.148;2022-12-07T03:55:40;5.10;98.90
62581;DHT22;48640;48.770;9.148;2022-12-07T03:58:11;4.60;98.90
62581;DHT22;48640;48.770;9.148;2022-12-07T04:00:40;4.70;99.00
62581;DHT22;48640;48.770;9.148;2022-12-07T04:03:07;4.80;99.20
62581;DHT22;48640;48.770;9.148;2022-12-07T04:05:35;4.50;98.40
62581;DHT22;48640;48.770;9.148;2022-12-07T04:08:02;4.50;98.20
62581;DHT22;48640;48.770;9.148;2022-12-07T04:10:29;4.70;98.70
62581;DHT22;48640;48.770;9.148;2022-12-07T04:12:56;4.70;99.00
62581;DHT22;48640;48.770;9.148;2022-12-07T04:15:22;5.00;99.00
62581;DHT22;48640;48.770;9.148;2022-12-07T04:17:51;4.90;99.10
62581;DHT22;48640;48.770;9.148;2022-12-07T04:20:17;4.30;98.70
62581;DHT22;48640;48.770;9.148;2022-12-07T04:22:44;4.90;98.80
62581;DHT22;48640;48.770;9.148;2022-12-07T04:25:11;4.20;98.60
62581;DHT22;48640;48.770;9.148;2022-12-07T04:27:38;4.40;98.60
62581;DHT22;48640;48.770;9.148;2022-12-07T04:30:06;4.40;98.60
62581;DHT22;48640;48.770;9.148;2022-12-07T04:32:33;4.80;98.90
62581;DHT22;48640;48.770;9.148;2022-12-07T04:35:01;4.90;98.20
62581;DHT22;48640;48.770;9.148;2022-12-07T04:37:27;4.40;97.40
62581;DHT22;48640;48.770;9.148;2022-12-07T04:39:54;4.30;97.20
62581;DHT22;48640;48.770;9.148;2022-12-07T04:42:21;4.70;96.00
62581;DHT22;48640;48.770;9.148;2022-12-07T04:44:48;4.70;94.70
62581;DHT22;48640;48.770;9.148;2022-12-07T04:47:14;4.90;95.10
62581;DHT22;48640;48.770;9.148;2022-12-07T04:49:41;4.50;95.30
62581;DHT22;48640;48.770;9.148;2022-12-07T04:52:09;4.70;95.70
62581;DHT22;48640;48.770;9.148;2022-12-07T04:54:36;4.80;96.00
62581;DHT22;48640;48.770;9.148;2022-12-07T04:57:03;4.70;95.90
62581;DHT22;48640;48.770;9.148;2022-12-07T04:59:30;4.50;95.40
62581;DHT22;48640;48.770;9.148;2022-12-07T05:01:57;4.20;94.40
62581;DHT22;48640;48.770;9.148;2022-12-07T05:04:24;4.70;94.40
62581;DHT22;48640;48.770;9.148;2022-12-07T05:06:50;4.20;93.10
62581;DHT22;48640;48.770;9.148;2022-12-07T05:09:19;4.70;92.60
62581;DHT22;48640;48.770;9.148;2022-12-07T05:11:45;4.60;92.30
62581;DHT22;48640;48.770;9.148;2022-12-07T05:14:15;4.90;92.60
62581;DHT22;48640;48.770;9.148;2022-12-07T05:16:43;4.50;92.50
62581;DHT22;48640;48.770;9.148;2022-12-07T05:19:10;4.30;92.40
62581;DHT22;48640;48.770;9.148;2022-12-07T05:21:38;4.80;92.50
62581;DHT22;48640;48.770;9.148;2022-12-07T05:24:06;4.90;92.70
62581;DHT22;48640;48.770;9.148;2022-12-07T05:26:34;4.20;92.30
62581;DHT22;48640;48.770;9.148;2022-12-07T05:29:02;4.30;92.60
62581;DHT22;48640;48.770;9.148;2022-12-07T05:31:29;3.90;93.00
62581;DHT22;48640;48.770;9.148;2022-12-07T05:33:55;4.20;93.40
62581;DHT22;48640;48.770;9.148;2022-12-07T05:36:22;3.70;94.00
62581;DHT22;48640;48.770;9.148;2022-12-07T05:38:50;4.20;94.90
62581;DHT22;48640;48.770;9.148;2022-12-07T05:41:18;3.50;95.50
62581;DHT22;48640;48.770;9.148;2022-12-07T05:44:04;3.70;96.00
62581;DHT22;48640;48.770;9.148;2022-12-07T05:46:31;3.70;96.50
62581;DHT22;48640;48.770;9.148;2022-12-07T05:48:58;3.40;96.80
62581;DHT22;48640;48.770;9.148;2022-12-07T05:51:25;3.30;96.90
62581;DHT22;48640;48.770;9.148;2022-12-07T05:53:52;3.10;97.30
62581;DHT22;48640;48.770;9.148;2022-12-07T05:56:19;3.30;97.60
62581;DHT22;48640;48.770;9.148;2022-12-07T05:58:46;3.50;97.80
62581;DHT22;48640;48.770;9.148;2022-12-07T06:01:31;4.00;97.90
62581;DHT22;48640;48.770;9.148;2022-12-07T06:03:58;4.00;97.40
62581;DHT22;48640;48.770;9.148;2022-12-07T06:06:25;4.20;97.20
62581;DHT22;48640;48.770;9.148;2022-12-07T06:08:52;3.80;96.50
62581;DHT22;48640;48.770;9.148;2022-12-07T06:11:19;4.10;96.30
62581;DHT22;48640;48.770;9.148;2022-12-07T06:14:03;3.80;96.00
62581;DHT22;48640;48.770;9.148;2022-12-07T06:16:31;3.90;96.40
62581;DHT22;48640;48.770;9.148;2022-12-07T06:18:58;4.10;96.60
62581;DHT22;48640;48.770;9.148;2022-12-07T06:21:25;4.00;96.30
62581;DHT22;48640;48.770;9.148;2022-12-07T06:23:52;4.60;96.40
62581;DHT22;48640;48.770;9.148;2022-12-07T06:26:19;4.20;95.90
62581;DHT22;48640;48.770;9.148;2022-12-07T06:28:45;3.80;96.60
62581;DHT22;48640;48.770;9.148;2022-12-07T06:31:12;3.80;96.70
62581;DHT22;48640;48.770;9.148;2022-12-07T06:33:40;4.00;96.70
62581;DHT22;48640;48.770;9.148;2022-12-07T06:36:08;4.50;97.00
62581;DHT22;48640;48.770;9.148;2022-12-07T06:38:35;4.70;96.60
62581;DHT22;48640;48.770;9.148;2022-12-07T06:41:02;4.10;96.00
62581;DHT22;48640;48.770;9.148;2022-12-07T06:43:29;4.60;96.10
62581;DHT22;48640;48.770;9.148;2022-12-07T06:45:56;4.20;95.80
62581;DHT22;48640;48.770;9.148;2022-12-07T06:48:23;4.90;96.00
62581;DHT22;48640;48.770;9.148;2022-12-07T06:50:51;5.00;96.10
62581;DHT22;48640;48.770;9.148;2022-12-07T06:53:19;4.30;95.20
62581;DHT22;48640;48.770;9.148;2022-12-07T06:55:45;4.10;95.00
62581;DHT22;48640;48.770;9.148;2022-12-07T06:58:12;4.30;94.70
62581;DHT22;48640;48.770;9.148;2022-12-07T07:00:39;4.10;94.50
62581;DHT22;48640;48.770;9.148;2022-12-07T07:03:06;4.30;94.50
62581;DHT22;48640;48.770;9.148;2022-12-07T07:05:32;4.60;94.80
62581;DHT22;48640;48.770;9.148;2022-12-07T07:08:01;4.40;95.00
62581;DHT22;48640;48.770;9.148;2022-12-07T07:10:28;4.60;94.90
62581;DHT22;48640;48.770;9.148;2022-12-07T07:12:54;4.30;94.90
62581;DHT22;48640;48.770;9.148;2022-12-07T07:15:21;4.60;95.30
62581;DHT22;48640;48.770;9.148;2022-12-07T07:17:48;4.70;95.10
62581;DHT22;48640;48.770;9.148;2022-12-07T07:20:15;4.10;94.70
62581;DHT22;48640;48.770;9.148;2022-12-07T07:22:42;4.10;94.70
62581;DHT22;48640;48.770;9.148;2022-12-07T07:25:10;4.80;94.90
62581;DHT22;48640;48.770;9.148;2022-12-07T07:27:37;4.30;94.30
62581;DHT22;48640;48.770;9.148;2022-12-07T07:30:05;4.30;94.30
62581;DHT22;48640;48.770;9.148;2022-12-07T07:32:32;4.80;93.90
62581;DHT22;48640;48.770;9.148;2022-12-07T07:34:59;4.40;93.90
62581;DHT22;48640;48.770;9.148;2022-12-07T07:37:26;4.30;93.70
62581;DHT22;48640;48.770;9.148;2022-12-07T07:39:53;4.70;94.10
62581;DHT22;48640;48.770;9.148;2022-12-07T07:42:21;4.70;94.00
62581;DHT22;48640;48.770;9.148;2022-12-07T07:44:48;4.60;94.20
62581;DHT22;48640;48.770;9.148;2022-12-07T07:47:15;4.40;94.10
62581;DHT22;48640;48.770;9.148;2022-12-07T07:49:41;4.50;94.10
62581;DHT22;48640;48.770;9.148;2022-12-07T07:52:08;4.30;94.00
62581;DHT22;48640;48.770;9.148;2022-12-07T07:54:35;4.30;93.90
62581;DHT22;48640;48.770;9.148;2022-12-07T07:57:02;4.80;94.40
62581;DHT22;48640;48.770;9.148;2022-12-07T07:59:30;4.30;93.70
62581;DHT22;48640;48.770;9.148;2022-12-07T08:01:57;5.00;94.20
62581;DHT22;48640;48.770;9.148;2022-12-07T08:04:23;4.50;93.80
62581;DHT22;48640;48.770;9.148;2022-12-07T08:06:50;4.90;93.80
62581;DHT22;48640;48.770;9.148;2022-12-07T08:09:17;4.60;93.50
62581;DHT22;48640;48.770;9.148;2022-12-07T08:11:44;5.10;93.40
62581;DHT22;48640;48.770;9.148;2022-12-07T08:14:11;4.70;93.00
62581;DHT22;48640;48.770;9.148;2022-12-07T08:16:40;4.70;92.80
62581;DHT22;48640;48.770;9.148;2022-12-07T08:19:06;5.30;92.50
62581;DHT22;48640;48.770;9.148;2022-12-07T08:21:33;5.50;92.30
62581;DHT22;48640;48.770;9.148;2022-12-07T08:24:00;5.20;92.00
62581;DHT22;48640;48.770;9.148;2022-12-07T08:26:27;5.40;92.60
62581;DHT22;48640;48.770;9.148;2022-12-07T08:28:53;5.00;91.90
62581;DHT22;48640;48.770;9.148;2022-12-07T08:31:20;5.40;91.70
62581;DHT22;48640;48.770;9.148;2022-12-07T08:33:48;5.60;91.80
62581;DHT22;48640;48.770;9.148;2022-12-07T08:36:15;5.30;91.10
62581;DHT22;48640;48.770;9.148;2022-12-07T08:38:43;5.30;90.80
62581;DHT22;48640;48.770;9.148;2022-12-07T08:41:09;5.80;91.10
62581;DHT22;48640;48.770;9.148;2022-12-07T08:43:36;5.10;90.70
62581;DHT22;48640;48.770;9.148;2022-12-07T08:46:08;5.60;91.00
62581;DHT22;48640;48.770;9.148;2022-12-07T08:48:38;5.30;90.50
62581;DHT22;48640;48.770;9.148;2022-12-07T08:51:07;5.50;90.50
62581;DHT22;48640;48.770;9.148;2022-12-07T08:53:35;5.70;90.10
62581;DHT22;48640;48.770;9.148;2022-12-07T08:56:04;6.10;90.30
62581;DHT22;48640;48.770;9.148;2022-12-07T08:58:31;6.00;90.00
62581;DHT22;48640;48.770;9.148;2022-12-07T09:00:59;5.90;90.00
62581;DHT22;48640;48.770;9.148;2022-12-07T09:03:25;5.90;88.30
62581;DHT22;48640;48.770;9.148;2022-12-07T09:05:52;6.40;88.80
62581;DHT22;48640;48.770;9.148;2022-12-07T09:08:21;5.90;89.10
62581;DHT22;48640;48.770;9.148;2022-12-07T09:10:49;6.00;87.90
62581;DHT22;48640;48.770;9.148;2022-12-07T09:13:16;6.60;87.80
62581;DHT22;48640;48.770;9.148;2022-12-07T09:15:42;6.70;87.80
62581;DHT22;48640;48.770;9.148;2022-12-07T09:18:09;6.00;86.90
62581;DHT22;48640;48.770;9.148;2022-12-07T09:20:36;6.10;87.70
62581;DHT22;48640;48.770;9.148;2022-12-07T09:23:05;6.70;87.80
62581;DHT22;48640;48.770;9.148;2022-12-07T09:25:33;6.20;86.70
62581;DHT22;48640;48.770;9.148;2022-12-07T09:28:00;6.60;86.80
62581;DHT22;48640;48.770;9.148;2022-12-07T09:30:27;6.70;87.60
62581;DHT22;48640;48.770;9.148;2022-12-07T09:32:54;6.20;86.80
62581;DHT22;48640;48.770;9.148;2022-12-07T09:35:22;6.50;86.90
62581;DHT22;48640;48.770;9.148;2022-12-07T09:37:49;6.80;87.40
62581;DHT22;48640;48.770;9.148;2022-12-07T09:40:17;6.80;87.90
62581;DHT22;48640;48.770;9.148;2022-12-07T09:42:48;6.90;87.30
62581;DHT22;48640;48.770;9.148;2022-12-07T09:45:21;6.60;87.00
62581;DHT22;48640;48.770;9.148;2022-12-07T09:47:48;6.60;86.50
62581;DHT22;48640;48.770;9.148;2022-12-07T09:50:17;6.50;86.10
62581;DHT22;48640;48.770;9.148;2022-12-07T09:52:47;6.60;86.00
62581;DHT22;48640;48.770;9.148;2022-12-07T09:55:16;6.90;86.50
62581;DHT22;48640;48.770;9.148;2022-12-07T09:57:45;7.20;86.80
62581;DHT22;48640;48.770;9.148;2022-12-07T10:00:14;7.00;86.30
62581;DHT22;48640;48.770;9.148;2022-12-07T10:02:43;7.30;86.10
62581;DHT22;48640;48.770;9.148;2022-12-07T10:05:14;6.80;85.90
62581;DHT22;48640;48.770;9.148;2022-12-07T10:07:41;7.40;87.00
62581;DHT22;48640;48.770;9.148;2022-12-07T10:10:14;7.00;86.60
62581;DHT22;48640;48.770;9.148;2022-12-07T10:12:58;6.40;87.60
62581;DHT22;48640;48.770;9.148;2022-12-07T10:15:42;6.50;88.80
62581;DHT22;48640;48.770;9.148;2022-12-07T10:18:30;6.50;88.20
62581;DHT22;48640;48.770;9.148;2022-12-07T10:21:08;6.80;89.50
62581;DHT22;48640;48.770;9.148;2022-12-07T10:23:38;6.80;90.00
62581;DHT22;48640;48.770;9.148;2022-12-07T10:26:31;6.20;89.30
62581;DHT22;48640;48.770;9.148;2022-12-07T10:29:02;6.80;90.20
62581;DHT22;48640;48.770;9.148;2022-12-07T10:31:29;6.40;89.60
62581;DHT22;48640;48.770;9.148;2022-12-07T10:33:57;6.60;89.60
62581;DHT22;48640;48.770;9.148;2022-12-07T10:36:26;7.10;89.70
62581;DHT22;48640;48.770;9.148;2022-12-07T10:38:59;6.80;89.90
62581;DHT22;48640;48.770;9.148;2022-12-07T10:41:26;6.80;88.90
62581;DHT22;48640;48.770;9.148;2022-12-07T10:43:55;7.00;89.00
62581;DHT22;48640;48.770;9.148;2022-12-07T10:46:42;7.20;88.70
62581;DHT22;48640;48.770;9.148;2022-12-07T10:49:39;7.50;88.50
62581;DHT22;48640;48.770;9.148;2022-12-07T10:52:18;7.30;88.70
62581;DHT22;48640;48.770;9.148;2022-12-07T10:54:56;6.80;89.10
62581;DHT22;48640;48.770;9.148;2022-12-07T10:57:40;6.60;89.40
62581;DHT22;48640;48.770;9.148;2022-12-07T11:00:16;6.90;89.50
62581;DHT22;48640;48.770;9.148;2022-12-07T11:03:03;6.60;89.80
62581;DHT22;48640;48.770;9.148;2022-12-07T11:05:38;6.90;90.50
62581;DHT22;48640;48.770;9.148;2022-12-07T11:08:17;6.50;90.40
62581;DHT22;48640;48.770;9.148;2022-12-07T11:10:48;6.50;90.70
62581;DHT22;48640;48.770;9.148;2022-12-07T11:13:24;6.60;90.60
62581;DHT22;48640;48.770;9.148;2022-12-07T11:16:07;6.90;91.10
62581;DHT22;48640;48.770;9.148;2022-12-07T11:18:43;7.10;90.60
62581;DHT22;48640;48.770;9.148;2022-12-07T11:21:19;7.10;90.60
62581;DHT22;48640;48.770;9.148;2022-12-07T11:23:58;7.50;90.60
62581;DHT22;48640;48.770;9.148;2022-12-07T11:26:40;6.50;90.20
62581;DHT22;48640;48.770;9.148;2022-12-07T11:29:26;6.60;90.50
62581;DHT22;48640;48.770;9.148;2022-12-07T11:32:04;7.00;91.20
62581;DHT22;48640;48.770;9.148;2022-12-07T11:34:45;6.70;90.90
62581;DHT22;48640;48.770;9.148;2022-12-07T11:37:16;6.50;90.90
62581;DHT22;48640;48.770;9.148;2022-12-07T11:39:49;6.50;90.80
62581;DHT22;48640;48.770;9.148;2022-12-07T11:42:21;6.50;90.80
62581;DHT22;48640;48.770;9.148;2022-12-07T11:44:51;6.50;90.90
62581;DHT22;48640;48.770;9.148;2022-12-07T11:47:25;6.90;91.30
62581;DHT22;48640;48.770;9.148;2022-12-07T11:49:58;6.60;91.30
62581;DHT22;48640;48.770;9.148;2022-12-07T11:52:40;6.50;91.40
62581;DHT22;48640;48.770;9.148;2022-12-07T11:55:18;6.60;91.40
62581;DHT22;48640;48.770;9.148;2022-12-07T11:57:52;6.80;91.80
62581;DHT22;48640;48.770;9.148;2022-12-07T12:00:21;6.30;91.70
62581;DHT22;48640;48.770;9.148;2022-12-07T12:02:52;6.50;92.10
62581;DHT22;48640;48.770;9.148;2022-12-07T12:05:22;6.80;92.40
62581;DHT22;48640;48.770;9.148;2022-12-07T12:07:56;6.20;92.20
62581;DHT22;48640;48.770;9.148;2022-12-07T12:10:36;6.20;92.90
62581;DHT22;48640;48.770;9.148;2022-12-07T12:13:30;6.10;93.50
62581;DHT22;48640;48.770;9.148;2022-12-07T12:16:08;6.20;94.30
62581;DHT22;48640;48.770;9.148;2022-12-07T12:19:02;5.80;94.50
62581;DHT22;48640;48.770;9.148;2022-12-07T12:21:33;6.30;94.90
62581;DHT22;48640;48.770;9.148;2022-12-07T12:24:04;5.80;94.50
62581;DHT22;48640;48.770;9.148;2022-12-07T12:26:36;6.50;95.00
62581;DHT22;48640;48.770;9.148;2022-12-07T12:29:05;6.50;95.10
62581;DHT22;48640;48.770;9.148;2022-12-07T12:31:35;6.10;94.90
62581;DHT22;48640;48.770;9.148;2022-12-07T12:34:30;6.20;95.40
62581;DHT22;48640;48.770;9.148;2022-12-07T12:36:58;5.90;95.90
62581;DHT22;48640;48.770;9.148;2022-12-07T12:39:25;5.60;95.70
62581;DHT22;48640;48.770;9.148;2022-12-07T12:41:58;5.80;95.30
62581;DHT22;48640;48.770;9.148;2022-12-07T12:47:55;5.90;95.00
62581;DHT22;48640;48.770;9.148;2022-12-07T12:50:25;6.50;95.10
62581;DHT22;48640;48.770;9.148;2022-12-07T12:53:12;6.00;94.60
62581;DHT22;48640;48.770;9.148;2022-12-07T12:58:42;6.60;94.70
62581;DHT22;48640;48.770;9.148;2022-12-07T13:01:44;6.20;94.10
62581;DHT22;48640;48.770;9.148;2022-12-07T13:04:21;6.10;93.90
62581;DHT22;48640;48.770;9.148;2022-12-07T13:06:50;6.70;94.00
62581;DHT22;48640;48.770;9.148;2022-12-07T13:09:24;6.30;93.40
62581;DHT22;48640;48.770;9.148;2022-12-07T13:12:00;6.10;93.40
62581;DHT22;48640;48.770;9.148;2022-12-07T13:14:58;6.30;93.90
62581;DHT22;48640;48.770;9.148;2022-12-07T13:17:56;6.10;93.50
62581;DHT22;48640;48.770;9.148;2022-12-07T13:20:44;6.90;94.10
62581;DHT22;48640;48.770;9.148;2022-12-07T13:23:12;6.20;93.50
62581;DHT22;48640;48.770;9.148;2022-12-07T13:25:51;6.70;92.90
62581;DHT22;48640;48.770;9.148;2022-12-07T13:28:21;6.60;92.90
62581;DHT22;48640;48.770;9.148;2022-12-07T13:31:03;6.30;92.50
62581;DHT22;48640;48.770;9.148;2022-12-07T13:33:32;6.80;92.90
62581;DHT22;48640;48.770;9.148;2022-12-07T13:36:01;6.40;92.60
62581;DHT22;48640;48.770;9.148;2022-12-07T13:38:30;6.60;92.60
62581;DHT22;48640;48.770;9.148;2022-12-07T13:41:12;6.40;92.50
62581;DHT22;48640;48.770;9.148;2022-12-07T13:43:49;6.60;93.10
62581;DHT22;48640;48.770;9.148;2022-12-07T13:46:17;6.50;93.00
62581;DHT22;48640;48.770;9.148;2022-12-07T13:48:47;6.20;92.20
62581;DHT22;48640;48.770;9.148;2022-12-07T13:51:19;6.70;92.10
62581;DHT22;48640;48.770;9.148;2022-12-07T13:53:47;6.30;92.10
62581;DHT22;48640;48.770;9.148;2022-12-07T13:56:16;6.30;92.20
62581;DHT22;48640;48.770;9.148;2022-12-07T13:58:43;6.60;92.10
62581;DHT22;48640;48.770;9.148;2022-12-07T14:01:10;6.50;92.30
62581;DHT22;48640;48.770;9.148;2022-12-07T14:03:39;6.40;92.40
62581;DHT22;48640;48.770;9.148;2022-12-07T14:06:24;6.80;92.30
62581;DHT22;48640;48.770;9.148;2022-12-07T14:09:06;6.80;92.10
62581;DHT22;48640;48.770;9.148;2022-12-07T14:11:35;6.80;92.20
62581;DHT22;48640;48.770;9.148;2022-12-07T14:14:03;6.40;92.10
62581;DHT22;48640;48.770;9.148;2022-12-07T14:16:32;6.60;92.20
62581;DHT22;48640;48.770;9.148;2022-12-07T14:19:02;6.30;91.90
62581;DHT22;48640;48.770;9.148;2022-12-07T14:21:32;6.10;91.60
62581;DHT22;48640;48.770;9.148;2022-12-07T14:24:12;6.60;92.20
62581;DHT22;48640;48.770;9.148;2022-12-07T14:26:42;6.10;92.30
62581;DHT22;48640;48.770;9.148;2022-12-07T14:29:29;6.30;92.40
62581;DHT22;48640;48.770;9.148;2022-12-07T14:31:57;5.90;92.40
62581;DHT22;48640;48.770;9.148;2022-12-07T14:34:24;6.40;92.50
62581;DHT22;48640;48.770;9.148;2022-12-07T14:36:51;6.00;92.40
62581;DHT22;48640;48.770;9.148;2022-12-07T14:39:19;6.10;92.40
62581;DHT22;48640;48.770;9.148;2022-12-07T14:41:47;6.40;92.40
62581;DHT22;48640;48.770;9.148;2022-12-07T14:44:17;5.90;92.40
62581;DHT22;48640;48.770;9.148;2022-12-07T14:46:44;6.50;92.90
62581;DHT22;48640;48.770;9.148;2022-12-07T14:49:11;6.00;92.80
62581;DHT22;48640;48.770;9.148;2022-12-07T14:51:39;6.50;93.20
62581;DHT22;48640;48.770;9.148;2022-12-07T14:54:13;6.30;93.20
62581;DHT22;48640;48.770;9.148;2022-12-07T14:56:41;6.40;93.30
62581;DHT22;48640;48.770;9.148;2022-12-07T14:59:10;6.20;93.60
62581;DHT22;48640;48.770;9.148;2022-12-07T15:01:37;5.90;93.30
62581;DHT22;48640;48.770;9.148;2022-12-07T15:04:04;5.90;93.20
62581;DHT22;48640;48.770;9.148;2022-12-07T15:06:31;5.80;93.40
62581;DHT22;48640;48.770;9.148;2022-12-07T15:08:58;6.20;93.50
62581;DHT22;48640;48.770;9.148;2022-12-07T15:11:25;5.80;93.70
62581;DHT22;48640;48.770;9.148;2022-12-07T15:13:51;6.00;94.10
62581;DHT22;48640;48.770;9.148;2022-12-07T15:16:41;6.00;94.30
62581;DHT22;48640;48.770;9.148;2022-12-07T15:19:12;5.40;94.30
62581;DHT22;48640;48.770;9.148;2022-12-07T15:21:41;6.40;94.90
62581;DHT22;48640;48.770;9.148;2022-12-07T15:24:09;5.60;94.60
62581;DHT22;48640;48.770;9.148;2022-12-07T15:26:36;5.50;94.70
62581;DHT22;48640;48.770;9.148;2022-12-07T15:29:03;6.20;94.70
62581;DHT22;48640;48.770;9.148;2022-12-07T15:31:30;6.00;94.50
62581;DHT22;48640;48.770;9.148;2022-12-07T15:33:58;5.90;94.30
62581;DHT22;48640;48.770;9.148;2022-12-07T15:36:27;5.60;94.30
62581;DHT22;48640;48.770;9.148;2022-12-07T15:38:55;6.00;94.40
62581;DHT22;48640;48.770;9.148;2022-12-07T15:41:22;5.80;94.30
62581;DHT22;48640;48.770;9.148;2022-12-07T15:43:49;5.70;94.50
62581;DHT22;48640;48.770;9.148;2022-12-07T15:46:35;5.70;94.70
62581;DHT22;48640;48.770;9.148;2022-12-07T15:49:05;5.80;95.00
62581;DHT22;48640;48.770;9.148;2022-12-07T15:51:32;5.60;95.00
62581;DHT22;48640;48.770;9.148;2022-12-07T15:53:59;5.70;95.30
62581;DHT22;48640;48.770;9.148;2022-12-07T15:56:26;5.50;95.40
62581;DHT22;48640;48.770;9.148;2022-12-07T15:58:53;4.90;95.00
62581;DHT22;48640;48.770;9.148;2022-12-07T16:01:19;5.10;95.30
62581;DHT22;48640;48.770;9.148;2022-12-07T16:03:46;5.00;95.10
62581;DHT22;48640;48.770;9.148;2022-12-07T16:06:17;5.70;95.40
62581;DHT22;48640;48.770;9.148;2022-12-07T16:08:44;5.00;94.90
62581;DHT22;48640;48.770;9.148;2022-12-07T16:11:11;5.60;95.30
62581;DHT22;48640;48.770;9.148;2022-12-07T16:13:38;5.60;95.40
62581;DHT22;48640;48.770;9.148;2022-12-07T16:16:08;4.90;95.10
62581;DHT22;48640;48.770;9.148;2022-12-07T16:18:36;5.40;95.40